createdAt,value
2023-01-01T00:01:42.002Z,115.85
2023-01-01T00:04:13.066Z,115.65
2023-01-01T00:06:40.569Z,113.32
2023-01-01T00:09:25.793Z,89.22
2023-01-01T00:11:52.558Z,85.65
2023-01-01T00:14:19.392Z,102.30
2023-01-01T00:16:46.288Z,80.30
2023-01-01T00:19:13.009Z,77.00
2023-01-01T00:21:40.199Z,75.22
2023-01-01T00:24:07.871Z,62.08
2023-01-01T00:26:35.686Z,77.80
2023-01-01T00:29:03.327Z,72.45
2023-01-01T00:31:30.713Z,62.90
2023-01-01T00:33:58.289Z,75.07
2023-01-01T00:36:27.221Z,64.03
2023-01-01T00:38:55.056Z,55.30
2023-01-01T00:41:22.711Z,53.15
2023-01-01T00:43:49.595Z,52.42
2023-01-01T00:46:16.586Z,44.20
2023-01-01T00:48:43.467Z,42.88
2023-01-01T00:51:10.233Z,38.60
2023-01-01T00:53:37.881Z,31.27
2023-01-01T00:56:05.015Z,28.23
2023-01-01T00:58:31.882Z,27.00
2023-01-01T01:00:58.753Z,27.67
2023-01-01T01:03:28.666Z,29.95
2023-01-01T01:06:04.192Z,29.33
2023-01-01T01:08:33.936Z,31.73
2023-01-01T01:11:18.228Z,32.50
2023-01-01T01:13:47.722Z,34.30
2023-01-01T01:16:18.677Z,35.17
2023-01-01T01:18:46.134Z,34.30
2023-01-01T01:21:17.986Z,35.15
2023-01-01T01:23:45.178Z,35.90
2023-01-01T01:26:17.984Z,35.20
2023-01-01T01:28:49.345Z,35.92
2023-01-01T01:31:21.435Z,36.45
2023-01-01T01:33:49.038Z,35.65
2023-01-01T01:36:17.339Z,36.08
2023-01-01T01:38:45.725Z,36.28
2023-01-01T01:41:27.325Z,35.28
2023-01-01T01:44:27.405Z,34.13
2023-01-01T01:46:54.219Z,32.15
2023-01-01T01:49:32.909Z,31.42
2023-01-01T01:52:01.889Z,32.83
2023-01-01T01:54:29.829Z,34.28
2023-01-01T01:57:06.345Z,33.70
2023-01-01T01:59:37.644Z,33.50
2023-01-01T02:02:12.265Z,31.85
2023-01-01T02:04:39.353Z,31.30
2023-01-01T02:07:06.101Z,31.80
2023-01-01T02:09:32.896Z,29.33
2023-01-01T02:11:59.843Z,27.98
2023-01-01T02:14:26.712Z,26.25
2023-01-01T02:16:59.954Z,24.70
2023-01-01T02:19:58.039Z,24.67
2023-01-01T02:22:36.493Z,24.13
2023-01-01T02:25:42.891Z,24.48
2023-01-01T02:28:19.834Z,26.88
2023-01-01T02:30:48.809Z,30.90
2023-01-01T02:33:22.738Z,27.58
2023-01-01T02:35:56.232Z,27.55
2023-01-01T02:38:36.452Z,26.23
2023-01-01T02:41:06.952Z,25.75
2023-01-01T02:43:34.211Z,24.48
2023-01-01T02:46:06.162Z,25.88
2023-01-01T02:48:47.432Z,26.30
2023-01-01T02:51:14.100Z,24.75
2023-01-01T02:53:59.677Z,26.13
2023-01-01T02:56:39.059Z,26.27
2023-01-01T02:59:39.792Z,24.70
2023-01-01T03:02:50.396Z,25.75
2023-01-01T03:05:35.922Z,24.20
2023-01-01T03:08:21.568Z,25.05
2023-01-01T03:11:02.307Z,26.95
2023-01-01T03:13:50.109Z,26.67
2023-01-01T03:16:24.868Z,22.25
2023-01-01T03:19:10.963Z,20.58
2023-01-01T03:21:43.880Z,19.67
2023-01-01T03:24:18.621Z,19.73
2023-01-01T03:26:50.913Z,22.75
2023-01-01T03:29:18.812Z,22.73
2023-01-01T03:31:49.552Z,23.02
2023-01-01T03:34:24.007Z,22.27
2023-01-01T03:36:56.866Z,22.98
2023-01-01T03:39:30.625Z,24.20
2023-01-01T03:42:20.230Z,23.65
2023-01-01T03:45:01.801Z,24.20
2023-01-01T03:47:29.420Z,25.77
2023-01-01T03:49:57.582Z,25.83
2023-01-01T03:52:43.108Z,24.48
2023-01-01T03:55:19.686Z,24.42
2023-01-01T03:58:02.976Z,25.17
2023-01-01T04:00:36.393Z,22.83
2023-01-01T04:03:14.079Z,25.92
2023-01-01T04:05:42.730Z,24.63
2023-01-01T04:08:11.829Z,25.10
2023-01-01T04:10:43.015Z,26.00
2023-01-01T04:13:09.892Z,25.38
2023-01-01T04:15:36.837Z,24.05
2023-01-01T04:18:03.920Z,24.33
2023-01-01T04:20:30.826Z,24.35
2023-01-01T04:22:59.688Z,26.30
2023-01-01T04:25:27.647Z,25.67
2023-01-01T04:27:58.172Z,28.17
2023-01-01T04:30:25.717Z,26.35
2023-01-01T04:32:52.541Z,26.27
2023-01-01T04:35:19.435Z,27.48
2023-01-01T04:37:46.486Z,26.85
2023-01-01T04:40:14.436Z,27.80
2023-01-01T04:42:41.944Z,27.70
2023-01-01T04:45:09.198Z,26.13
2023-01-01T04:47:36.045Z,25.58
2023-01-01T04:50:02.900Z,22.58
2023-01-01T04:52:29.787Z,25.00
2023-01-01T04:54:56.552Z,21.63
2023-01-01T04:57:23.267Z,20.80
2023-01-01T04:59:49.948Z,20.02
2023-01-01T05:02:17.152Z,18.85
2023-01-01T05:04:44.461Z,17.48
2023-01-01T05:07:11.254Z,15.82
2023-01-01T05:09:38.052Z,16.83
2023-01-01T05:12:04.957Z,18.40
2023-01-01T05:14:31.691Z,18.23
2023-01-01T05:16:58.502Z,18.73
2023-01-01T05:19:25.268Z,17.35
2023-01-01T05:21:52.017Z,18.20
2023-01-01T05:24:18.726Z,18.23
2023-01-01T05:26:45.545Z,18.17
2023-01-01T05:29:16.658Z,16.58
2023-01-01T05:31:45.349Z,17.35
2023-01-01T05:34:12.693Z,16.88
2023-01-01T05:36:39.549Z,16.75
2023-01-01T05:39:07.625Z,15.65
2023-01-01T05:41:37.728Z,18.40
2023-01-01T05:44:06.615Z,23.73
2023-01-01T05:46:33.623Z,32.20
2023-01-01T05:49:00.800Z,33.72
2023-01-01T05:51:29.634Z,25.02
2023-01-01T05:53:57.527Z,20.08
2023-01-01T05:56:24.378Z,19.75
2023-01-01T05:58:51.469Z,19.33
2023-01-01T06:01:26.305Z,21.83
2023-01-01T06:03:54.573Z,28.15
2023-01-01T06:06:25.786Z,30.75
2023-01-01T06:08:54.930Z,34.35
2023-01-01T06:11:22.233Z,32.95
2023-01-01T06:13:52.468Z,27.33
2023-01-01T06:16:19.280Z,22.08
2023-01-01T06:18:46.049Z,22.67
2023-01-01T06:21:18.692Z,22.60
2023-01-01T06:23:45.447Z,22.83
2023-01-01T06:26:18.359Z,23.38
2023-01-01T06:28:46.506Z,23.00
2023-01-01T06:31:16.116Z,22.13
2023-01-01T06:33:43.943Z,22.85
2023-01-01T06:36:12.941Z,23.95
2023-01-01T06:38:42.599Z,25.42
2023-01-01T06:41:14.416Z,24.00
2023-01-01T06:43:41.809Z,20.67
2023-01-01T06:46:16.331Z,19.70
2023-01-01T06:48:44.015Z,18.08
2023-01-01T06:51:14.093Z,25.33
2023-01-01T06:53:41.252Z,32.08
2023-01-01T06:56:08.761Z,26.70
2023-01-01T06:58:35.796Z,26.48
2023-01-01T07:01:14.563Z,18.13
2023-01-01T07:03:42.409Z,8.18
2023-01-01T07:06:10.395Z,8.82
2023-01-01T07:08:37.652Z,13.77
2023-01-01T07:11:05.649Z,17.90
2023-01-01T07:13:32.373Z,14.65
2023-01-01T07:15:59.584Z,14.77
2023-01-01T07:18:26.859Z,13.63
2023-01-01T07:20:56.010Z,13.85
2023-01-01T07:23:23.443Z,11.45
2023-01-01T07:25:51.013Z,9.35
2023-01-01T07:28:18.133Z,9.57
2023-01-01T07:30:46.698Z,9.88
2023-01-01T07:33:15.872Z,8.40
2023-01-01T07:35:44.831Z,8.90
2023-01-01T07:38:12.647Z,9.15
2023-01-01T07:40:39.805Z,7.65
2023-01-01T07:43:07.170Z,7.50
2023-01-01T07:45:34.879Z,6.72
2023-01-01T07:48:02.474Z,8.30
2023-01-01T07:50:31.748Z,8.95
2023-01-01T07:52:59.015Z,9.48
2023-01-01T07:55:26.782Z,9.18
2023-01-01T07:57:53.491Z,12.07
2023-01-01T08:00:22.240Z,12.57
2023-01-01T08:02:49.556Z,13.25
2023-01-01T08:05:19.891Z,13.60
2023-01-01T08:07:50.888Z,16.33
2023-01-01T08:10:20.302Z,15.30
2023-01-01T08:12:47.493Z,13.80
2023-01-01T08:15:15.502Z,14.65
2023-01-01T08:17:46.566Z,16.88
2023-01-01T08:20:14.155Z,14.02
2023-01-01T08:22:41.795Z,14.02
2023-01-01T08:25:09.230Z,14.18
2023-01-01T08:27:36.133Z,14.38
2023-01-01T08:30:03.026Z,13.35
2023-01-01T08:32:29.857Z,13.20
2023-01-01T08:34:56.573Z,13.63
2023-01-01T08:37:23.969Z,12.85
2023-01-01T08:39:54.258Z,12.65
2023-01-01T08:42:21.008Z,11.35
2023-01-01T08:44:47.792Z,11.73
2023-01-01T08:48:43.261Z,13.02
2023-01-01T08:51:10.597Z,11.52
2023-01-01T08:53:37.528Z,12.57
2023-01-01T08:56:07.367Z,12.98
2023-01-01T08:58:37.020Z,12.65
2023-01-01T09:01:04.918Z,13.15
2023-01-01T09:03:31.792Z,14.32
2023-01-01T09:05:59.122Z,12.85
2023-01-01T09:08:26.049Z,16.02
2023-01-01T09:10:57.435Z,25.45
2023-01-01T09:13:24.214Z,19.45
2023-01-01T09:15:51.167Z,15.10
2023-01-01T09:18:18.058Z,12.82
2023-01-01T09:20:44.873Z,12.20
2023-01-01T09:23:12.710Z,11.88
2023-01-01T09:25:40.215Z,11.32
2023-01-01T09:28:10.773Z,12.30
2023-01-01T09:30:37.669Z,11.55
2023-01-01T09:33:04.862Z,10.38
2023-01-01T09:35:31.643Z,10.30
2023-01-01T09:38:35.115Z,11.05
2023-01-01T09:41:19.387Z,9.85
2023-01-01T09:44:03.181Z,10.68
2023-01-01T09:46:32.111Z,10.53
2023-01-01T09:49:06.939Z,10.35
2023-01-01T09:51:43.240Z,10.73
2023-01-01T09:54:40.615Z,11.35
2023-01-01T09:57:16.312Z,12.00
2023-01-01T09:59:46.606Z,11.73
2023-01-01T10:02:22.495Z,11.82
2023-01-01T10:05:27.557Z,10.35
2023-01-01T10:07:58.798Z,9.57
2023-01-01T10:10:34.498Z,10.20
2023-01-01T10:13:15.032Z,10.23
2023-01-01T10:15:52.902Z,10.13
2023-01-01T10:18:27.898Z,10.52
2023-01-01T10:21:02.836Z,9.95
2023-01-01T10:23:35.560Z,10.77
2023-01-01T10:26:11.582Z,10.40
2023-01-01T10:29:01.772Z,10.88
2023-01-01T10:31:58.444Z,9.63
2023-01-01T10:34:28.457Z,8.93
2023-01-01T10:36:58.438Z,9.20
2023-01-01T10:39:26.471Z,9.37
2023-01-01T10:41:53.296Z,9.05
2023-01-01T10:44:29.413Z,10.15
2023-01-01T10:47:09.596Z,9.55
2023-01-01T10:49:55.378Z,8.82
2023-01-01T10:52:31.806Z,7.87
2023-01-01T10:55:00.008Z,8.27
2023-01-01T10:57:33.572Z,8.80
2023-01-01T11:00:25.559Z,8.60
2023-01-01T11:03:20.944Z,7.93
2023-01-01T11:06:01.908Z,7.53
2023-01-01T11:08:30.860Z,7.63
2023-01-01T11:11:02.809Z,7.80
2023-01-01T11:13:31.068Z,7.65
2023-01-01T11:15:58.437Z,7.28
2023-01-01T11:18:35.539Z,7.10
2023-01-01T11:21:05.375Z,7.28
2023-01-01T11:23:39.005Z,6.88
2023-01-01T11:26:05.822Z,7.15
2023-01-01T11:28:34.985Z,6.28
2023-01-01T11:31:15.913Z,6.30
2023-01-01T11:33:55.148Z,6.45
2023-01-01T11:36:33.796Z,6.47
2023-01-01T11:39:27.039Z,6.22
2023-01-01T11:41:56.530Z,5.97
2023-01-01T11:44:37.970Z,6.57
2023-01-01T11:47:06.579Z,6.53
2023-01-01T11:49:34.552Z,7.05
2023-01-01T11:52:01.423Z,7.18
2023-01-01T11:54:35.882Z,7.13
2023-01-01T11:57:19.537Z,7.13
2023-01-01T11:59:54.269Z,6.85
2023-01-01T12:02:42.166Z,6.40
2023-01-01T12:05:26.136Z,6.35
2023-01-01T12:07:54.249Z,6.43
2023-01-01T12:10:40.252Z,5.70
2023-01-01T12:13:15.625Z,6.47
2023-01-01T12:15:44.937Z,5.75
2023-01-01T12:18:31.619Z,6.78
2023-01-01T12:21:24.306Z,6.15
2023-01-01T12:23:51.240Z,5.73
2023-01-01T12:26:23.738Z,5.97
2023-01-01T12:29:14.556Z,5.28
2023-01-01T12:31:53.438Z,5.10
2023-01-01T12:34:33.865Z,4.88
2023-01-01T12:37:29.688Z,5.33
2023-01-01T12:40:29.455Z,5.63
2023-01-01T12:43:35.597Z,5.72
2023-01-01T12:46:17.453Z,5.82
2023-01-01T12:49:07.548Z,6.40
2023-01-01T12:51:40.071Z,5.80
2023-01-01T12:54:29.003Z,6.00
2023-01-01T12:57:09.685Z,5.65
2023-01-01T12:59:42.060Z,5.80
2023-01-01T13:02:19.099Z,6.00
2023-01-01T13:04:49.966Z,5.30
2023-01-01T13:07:23.965Z,5.60
2023-01-01T13:09:51.188Z,6.10
2023-01-01T13:12:21.772Z,5.57
2023-01-01T13:14:52.272Z,6.35
2023-01-01T13:17:27.937Z,6.00
2023-01-01T13:20:26.300Z,6.60
2023-01-01T13:22:53.180Z,5.85
2023-01-01T13:25:23.129Z,6.80
2023-01-01T13:28:13.159Z,7.03
2023-01-01T13:30:41.679Z,6.57
2023-01-01T13:33:25.002Z,6.97
2023-01-01T13:36:07.674Z,8.35
2023-01-01T13:38:58.836Z,7.65
2023-01-01T13:41:43.359Z,7.70
2023-01-01T13:44:10.060Z,7.80
2023-01-01T13:46:39.614Z,7.72
2023-01-01T13:49:25.025Z,8.05
2023-01-01T13:52:18.873Z,7.93
2023-01-01T13:54:58.854Z,8.02
2023-01-01T13:57:31.604Z,7.23
2023-01-01T14:00:07.433Z,7.60
2023-01-01T14:02:47.047Z,7.25
2023-01-01T14:05:39.868Z,7.07
2023-01-01T14:08:12.968Z,8.43
2023-01-01T14:10:40.031Z,8.50
2023-01-01T14:13:06.822Z,8.73
2023-01-01T14:15:42.382Z,8.85
2023-01-01T14:18:15.640Z,9.40
2023-01-01T14:20:47.852Z,7.72
2023-01-01T14:23:32.549Z,8.90
2023-01-01T14:26:02.627Z,8.07
2023-01-01T14:28:35.100Z,7.70
2023-01-01T14:31:10.691Z,7.22
2023-01-01T14:33:38.867Z,7.57
2023-01-01T14:36:15.669Z,7.73
2023-01-01T14:38:45.423Z,8.52
2023-01-01T14:41:12.325Z,7.43
2023-01-01T14:43:41.199Z,9.07
2023-01-01T14:46:11.360Z,7.03
2023-01-01T14:48:44.411Z,8.37
2023-01-01T14:51:18.628Z,7.82
2023-01-01T14:53:46.959Z,8.15
2023-01-01T14:56:28.282Z,9.02
2023-01-01T14:59:08.168Z,8.85
2023-01-01T15:01:35.410Z,7.67
2023-01-01T15:04:05.471Z,7.88
2023-01-01T15:06:33.541Z,8.20
2023-01-01T15:09:00.364Z,8.38
2023-01-01T15:11:29.363Z,8.73
2023-01-01T15:14:02.214Z,9.43
2023-01-01T15:16:33.403Z,13.20
2023-01-01T15:19:17.452Z,12.43
2023-01-01T15:21:44.339Z,10.15
2023-01-01T15:24:20.452Z,9.73
2023-01-01T15:26:53.803Z,9.77
2023-01-01T15:29:38.602Z,9.15
2023-01-01T15:32:11.671Z,9.65
2023-01-01T15:34:52.736Z,8.32
2023-01-01T15:37:28.332Z,9.95
2023-01-01T15:40:00.471Z,8.43
2023-01-01T15:42:38.991Z,8.93
2023-01-01T15:45:15.459Z,9.93
2023-01-01T15:47:42.960Z,8.23
2023-01-01T15:50:11.800Z,9.18
2023-01-01T15:52:38.947Z,17.87
2023-01-01T15:55:06.310Z,13.48
2023-01-01T15:57:33.179Z,16.45
2023-01-01T16:00:00.138Z,16.67
2023-01-01T16:02:32.312Z,12.32
2023-01-01T16:04:59.759Z,11.93
2023-01-01T16:07:27.768Z,13.30
2023-01-01T16:09:57.757Z,13.63
2023-01-01T16:12:25.600Z,10.60
2023-01-01T16:14:52.366Z,13.95
2023-01-01T16:17:20.717Z,13.00
2023-01-01T16:19:48.266Z,12.60
2023-01-01T16:22:17.007Z,10.65
2023-01-01T16:24:45.463Z,11.55
2023-01-01T16:27:12.783Z,13.57
2023-01-01T16:29:43.228Z,13.70
2023-01-01T16:32:19.654Z,12.95
2023-01-01T16:34:46.467Z,11.85
2023-01-01T16:37:13.199Z,10.40
2023-01-01T16:39:39.942Z,11.10
2023-01-01T16:42:11.260Z,10.20
2023-01-01T16:44:41.533Z,11.70
2023-01-01T16:47:08.597Z,13.45
2023-01-01T16:49:35.464Z,16.17
2023-01-01T16:52:03.233Z,15.35
2023-01-01T16:54:30.037Z,14.37
2023-01-01T16:56:56.853Z,16.23
2023-01-01T16:59:24.479Z,24.85
2023-01-01T17:01:51.430Z,35.13
2023-01-01T17:04:18.338Z,34.20
2023-01-01T17:06:45.580Z,24.53
2023-01-01T17:09:13.654Z,26.77
2023-01-01T17:11:41.365Z,26.20
2023-01-01T17:14:10.428Z,25.23
2023-01-01T17:16:39.935Z,24.23
2023-01-01T17:19:16.809Z,25.20
2023-01-01T17:21:46.999Z,24.98
2023-01-01T17:24:15.719Z,21.27
2023-01-01T17:26:43.076Z,19.83
2023-01-01T17:29:10.319Z,20.45
2023-01-01T17:31:38.186Z,20.03
2023-01-01T17:34:05.389Z,26.30
2023-01-01T17:36:32.200Z,23.00
2023-01-01T17:38:58.945Z,22.05
2023-01-01T17:41:25.722Z,12.88
2023-01-01T17:43:52.456Z,17.43
2023-01-01T17:46:24.023Z,18.27
2023-01-01T17:48:51.810Z,12.43
2023-01-01T17:51:19.471Z,14.88
2023-01-01T17:53:46.720Z,18.08
2023-01-01T17:56:15.562Z,22.63
2023-01-01T17:58:43.856Z,10.93
2023-01-01T18:01:10.838Z,6.45
2023-01-01T18:03:38.608Z,8.23
2023-01-01T18:06:06.264Z,6.68
2023-01-01T18:08:33.194Z,5.43
2023-01-01T18:11:00.980Z,3.85
2023-01-01T18:13:27.801Z,3.20
2023-01-01T18:15:54.819Z,3.30
2023-01-01T18:18:21.691Z,3.55
2023-01-01T18:20:48.483Z,4.80
2023-01-01T18:23:15.272Z,3.95
2023-01-01T18:25:42.132Z,2.55
2023-01-01T18:28:10.488Z,2.58
2023-01-01T18:30:37.371Z,6.03
2023-01-01T18:33:04.200Z,7.33
2023-01-01T18:35:31.026Z,6.10
2023-01-01T18:37:57.709Z,5.05
2023-01-01T18:40:24.738Z,6.97
2023-01-01T18:43:19.526Z,7.18
2023-01-01T18:45:46.402Z,7.80
2023-01-01T18:48:17.689Z,8.38
2023-01-01T18:50:44.513Z,7.80
2023-01-01T18:53:11.222Z,6.57
2023-01-01T18:55:38.080Z,6.05
2023-01-01T18:58:25.196Z,6.70
2023-01-01T19:00:53.844Z,6.45
2023-01-01T19:03:28.114Z,6.40
2023-01-01T19:05:56.792Z,6.25
2023-01-01T19:08:28.496Z,6.43
2023-01-01T19:11:01.929Z,4.90
2023-01-01T19:13:34.464Z,6.53
2023-01-01T19:16:30.010Z,5.50
2023-01-01T19:19:13.062Z,4.93
2023-01-01T19:21:44.074Z,7.13
2023-01-01T19:24:27.681Z,7.40
2023-01-01T19:27:12.264Z,8.80
2023-01-01T19:29:43.941Z,11.40
2023-01-01T19:32:10.716Z,11.23
2023-01-01T19:34:38.789Z,12.23
2023-01-01T19:37:06.655Z,10.73
2023-01-01T19:39:35.197Z,12.38
2023-01-01T19:42:07.113Z,11.43
2023-01-01T19:44:35.444Z,10.38
2023-01-01T19:47:06.330Z,13.00
2023-01-01T19:49:33.232Z,12.60
2023-01-01T19:52:00.133Z,12.23
2023-01-01T19:54:26.927Z,12.60
2023-01-01T19:56:53.641Z,12.32
2023-01-01T19:59:20.434Z,11.40
2023-01-01T20:02:03.373Z,11.83
2023-01-01T20:04:34.055Z,12.10
2023-01-01T20:07:00.907Z,12.18
2023-01-01T20:09:27.962Z,11.75
2023-01-01T20:11:54.659Z,10.88
2023-01-01T20:14:21.506Z,8.73
2023-01-01T20:16:48.376Z,9.48
2023-01-01T20:19:15.339Z,9.68
2023-01-01T20:22:00.609Z,9.27
2023-01-01T20:24:27.432Z,9.80
2023-01-01T20:26:56.434Z,9.13
2023-01-01T20:29:23.823Z,9.20
2023-01-01T20:31:54.433Z,9.45
2023-01-01T20:34:22.315Z,9.35
2023-01-01T20:37:07.833Z,9.60
2023-01-01T20:39:38.079Z,11.80
2023-01-01T20:42:05.252Z,12.20
2023-01-01T20:44:32.347Z,11.13
2023-01-01T20:46:59.310Z,9.50
2023-01-01T20:49:26.024Z,9.55
2023-01-01T20:51:53.359Z,10.13
2023-01-01T20:54:21.919Z,11.18
2023-01-01T20:56:48.645Z,9.98
2023-01-01T20:59:34.729Z,9.85
2023-01-01T21:02:08.312Z,9.65
2023-01-01T21:04:38.945Z,9.47
2023-01-01T21:07:10.768Z,9.80
2023-01-01T21:09:39.316Z,10.95
2023-01-01T21:12:07.029Z,12.90
2023-01-01T21:14:34.193Z,14.82
2023-01-01T21:17:07.619Z,14.73
2023-01-01T21:19:34.452Z,14.40
2023-01-01T21:22:01.264Z,13.55
2023-01-01T21:24:33.403Z,13.65
2023-01-01T21:27:05.568Z,13.93
2023-01-01T21:29:33.083Z,14.17
2023-01-01T21:32:19.052Z,12.35
2023-01-01T21:34:48.940Z,12.50
2023-01-01T21:37:46.020Z,13.93
2023-01-01T21:40:21.716Z,13.35
2023-01-01T21:42:49.216Z,13.77
2023-01-01T21:45:31.320Z,16.23
2023-01-01T21:48:16.619Z,16.05
2023-01-01T21:50:46.964Z,13.77
2023-01-01T21:53:19.289Z,14.65
2023-01-01T21:55:52.326Z,15.17
2023-01-01T21:58:45.007Z,16.00
2023-01-01T22:01:23.236Z,15.82
2023-01-01T22:04:02.690Z,17.10
2023-01-01T22:06:42.368Z,17.48
2023-01-01T22:09:26.866Z,16.97
2023-01-01T22:11:59.283Z,16.75
2023-01-01T22:14:33.023Z,16.88
2023-01-01T22:17:00.022Z,16.55
2023-01-01T22:19:33.379Z,17.15
2023-01-01T22:22:00.186Z,13.17
2023-01-01T22:24:34.419Z,16.40
2023-01-01T22:27:15.976Z,15.25
2023-01-01T22:29:44.536Z,14.73
2023-01-01T22:32:28.374Z,13.50
2023-01-01T22:35:11.377Z,14.20
2023-01-01T22:37:39.318Z,14.38
2023-01-01T22:40:36.830Z,13.82
2023-01-01T22:43:13.263Z,12.43
2023-01-01T22:45:43.744Z,8.93
2023-01-01T22:48:34.884Z,8.03
2023-01-01T22:51:06.703Z,7.07
2023-01-01T22:53:33.540Z,8.07
2023-01-01T22:56:00.425Z,8.35
2023-01-01T22:58:27.083Z,7.78
2023-01-01T23:00:53.897Z,7.27
2023-01-01T23:03:20.718Z,7.70
2023-01-01T23:05:47.723Z,7.20
2023-01-01T23:08:14.603Z,7.43
2023-01-01T23:10:41.352Z,7.90
2023-01-01T23:13:26.474Z,7.27
2023-01-01T23:16:00.935Z,8.30
2023-01-01T23:18:33.642Z,9.07
2023-01-01T23:21:13.150Z,7.35
2023-01-01T23:23:40.307Z,8.57
2023-01-01T23:26:08.764Z,9.00
2023-01-01T23:28:36.163Z,9.55
2023-01-01T23:31:05.370Z,9.82
2023-01-01T23:33:32.244Z,10.30
2023-01-01T23:36:01.673Z,9.55
2023-01-01T23:38:29.507Z,7.50
2023-01-01T23:40:56.194Z,8.10
2023-01-01T23:43:22.879Z,9.20
2023-01-01T23:45:50.282Z,9.63
2023-01-01T23:48:18.749Z,8.80
2023-01-01T23:50:47.007Z,9.10
2023-01-01T23:53:14.335Z,8.25
2023-01-01T23:55:41.192Z,8.45
2023-01-01T23:58:07.942Z,8.32
